Tigrett, Tennessee
Current Conditions -  °F | °C
As of 7:15 PM on Tuesday 21 Oct 2014 (Local Time) from KDYR Reporting Station
Clear Clear  
Wind Chill: 63°   Ceiling: Unl
Heat Index: 63°   Visibility: 10mi
Dew Point: 41°   Wind: 6mph
Humidity: 45%   Direction: 30°NNE
Pressure: 30.08"   Gusts: NA
Location:  35.95°N, 89.24°W
Report Text: KDYR 220015Z 03005KT 10SM CLR 17/05 A3008 RMK AO1
Loading
Personal Weather Stations






























Interactive Weather Map
Tropical Storm Tracking
New forecast layout! Learn more

10-Day Weather Forecast

Advertisements
Track Severe Weather on mobile